Αναφορές METAR από Ελληνικά Αεροδρόμια

Σε αυτή τη σελίδα, μπορείτε να παρακολουθείτε τις αναφορές METAR που προέρχονται από τα κυριότερα αεροδρόμια της Ελλάδας. Το περιεχόμενο αποκωδικοποιείται, οπτικοποιείται και γίνεται κατανοητό από τον καθένα με τη χρήση του όμορφου δίγλωσσου γραφικού περιβάλλοντος του meteothes.gr!

Η αρχική κωδικοποιημένη αναφορά, συμπεριλαμβάνεται επίσης στο κάτω μέρος. Σε όποια καθεστερεί η ενημέρωση, το προειδοποιητικό μήνυμα "Μη ενημερωμένο METAR!" εμφανίζεται στο πάνω μέρος της με κόκκινα γράμματα.

Εχουν προστεθεί επίσης δύο αεροδρόμια από γειτονικές χώρες, την Οχρίδα(ΠΓΔΜ) και την Σόφια(Βουλγαρία) για να ελέγχουμε την εξέλιξη των ψυχρών εισβολών από τα Βόρεια!

LGTS - Thessaloniki/Makedonia-Elev 7m
Απόσταση από meteothes.gr: Ν 13km
Ενημερώθηκε: 30/11/2022 09:20
Ψεκάδες, Κυρίως νεφελώδης
Ψεκάδες, Κυρίως νεφελώδης
 Ανεμος από Δ
Ανεμος: Δ 17 km/h
Θερμοκρασία: 11°C
Σημ. Δρόσου: 10°C
Υγρασία: 94%
Βαρόμετρο: 1015 hPa
Συνθήκες: Ψεκάδες
Νέφωση: Κυρίως νεφελώδης
Ορατότητα: 10 km
Λεπτομέρειες Νεφών: Διάσπαρτα Nέφη 457 m
Κυρίως νεφελώδης 914 m
2022/11/30 07:20 LGTS 300720Z 27009KT 9999 DZ FEW015 BKN030 11/10 Q1015 TEMPO 6000 RA
LGAV - Athens/Elef. Venizelos-Elev 94m
Απόσταση από meteothes.gr: ΝΝΑ 312km
Ενημερώθηκε: 30/11/2022 09:20
Κυρίως νεφελώδης
Κυρίως νεφελώδης
 Ανεμος από ΒΒΑ
Ανεμος: ΒΒΑ 19 km/h
Θερμοκρασία: 13°C
Σημ. Δρόσου: 9°C
Υγρασία: 77%
Βαρόμετρο: 1012 hPa
Νέφωση: Κυρίως νεφελώδης
Ορατότητα: 10 km
Λεπτομέρειες Νεφών: Διάσπαρτα Nέφη 610 m
Κυρίως νεφελώδης 914 m
2022/11/30 07:20 LGAV 300720Z 03010KT 9999 FEW020 BKN030 13/09 Q1012 REDZ NOSIG
 
LGAL - Alexandroupolis-Elev 3m
Απόσταση από meteothes.gr: Α 251km
Ενημερώθηκε: 30/11/2022 09:20
Μερικώς νεφελώδης
Μερικώς νεφελώδης
 Ανεμος από ΒΑ
Ανεμος: ΒΑ 31 km/h, Ριπή: 50 km/h
Θερμοκρασία: 13°C
Σημ. Δρόσου: 8°C
Υγρασία: 72%
Βαρόμετρο: 1016 hPa
Νέφωση: Μερικώς νεφελώδης
Ορατότητα: 10 km
Λεπτομέρειες Νεφών: Μερικώς νεφελώδης 244 m
Μερικώς νεφελώδης 1067 m
2022/11/30 07:20 LGAL 300720Z 04017G27KT 9999 SCT008 SCT035 13/08 Q1016
LGKV - Kavala/Crysoupolis-Elev 5m
Απόσταση από meteothes.gr: ΑΒΑ 144km
Ενημερώθηκε: 30/11/2022 09:20
Ασθενής βροχή, Συννεφιά
Ασθενής βροχή, Συννεφιά
 Ανεμος από Α
Ανεμος: Α 17 km/h
Θερμοκρασία: 10°C
Αίσθηση Ψύχρας: 8°C
Σημ. Δρόσου: 8°C
Υγρασία: 88%
Βαρόμετρο: 1016 hPa
Συνθήκες: Ασθενής βροχή
Νέφωση: Συννεφιά
Ορατότητα: 10 km
Λεπτομέρειες Νεφών: Διάσπαρτα Nέφη 457 m
Κυρίως νεφελώδης 762 m
Συννεφιά 2438 m
2022/11/30 07:20 LGKV 300720Z 08009KT 9999 -RA FEW015 BKN025 OVC080 10/08 Q1016
 
LGSK - Skiathos Island-Elev 15m
Απόσταση από meteothes.gr: ΝΝΑ 168km
Ενημερώθηκε: 29/11/2022 16:50
ΜΗ Ενημερωμένο METAR!
Βροχή, Κυρίως νεφελώδης
Βροχή, Κυρίως νεφελώδης
 Ανεμος από ΒΔ
Ανεμος: ΒΔ 19 km/h
Θερμοκρασία: 11°C
Σημ. Δρόσου: 9°C
Υγρασία: 88%
Βαρόμετρο: 1015 hPa
Συνθήκες: Βροχή
Νέφωση: Κυρίως νεφελώδης
Ορατότητα: 3 km
Λεπτομέρειες Νεφών: Διάσπαρτα Nέφη 244 m
Κυρίως νεφελώδης 610 m
2022/11/29 14:50 LGSK 291450Z 31010KT 3000 RA FEW008 BKN020 11/09 Q1015
LGLM - Limnos Island-Elev 5m
Απόσταση από meteothes.gr: ΑΝΑ 210km
Ενημερώθηκε: 30/11/2022 09:20
Μερικώς νεφελώδης
Μερικώς νεφελώδης
 Ανεμος από ΑΒΑ
Ανεμος: ΑΒΑ 19 km/h, Ριπή: 37 km/h
Θερμοκρασία: 14°C
Σημ. Δρόσου: 10°C
Υγρασία: 77%
Βαρόμετρο: 1014 hPa
Νέφωση: Μερικώς νεφελώδης
Ορατότητα: 10 km
Λεπτομέρειες Νεφών: Διάσπαρτα Nέφη 305 m
Μερικώς νεφελώδης 762 m
2022/11/30 07:20 LGLM 300720Z 07010G20KT 9999 FEW010 SCT025 14/10 Q1014
 
LGMT - Mitilini Island-Elev 17m
Απόσταση από meteothes.gr: ΑΝΑ 358km
Ενημερώθηκε: 30/11/2022 09:20
Διάσπαρτα Nέφη
Διάσπαρτα Nέφη
 Ανεμος από ΝΔ
Ανεμος: ΝΔ 9 km/h
Θερμοκρασία: 10°C
Αίσθηση Ψύχρας: 9°C
Σημ. Δρόσου: 8°C
Υγρασία: 88%
Βαρόμετρο: 1014 hPa
Νέφωση: Διάσπαρτα Nέφη
Ορατότητα: 9 km
Λεπτομέρειες Νεφών: Διάσπαρτα Nέφη 610 m
2022/11/30 07:20 LGMT 300720Z 22005KT 9000 FEW020 10/08 Q1014
LGSY - Skiros Island-Elev 15m
Απόσταση από meteothes.gr: ΝΑ 227km
Ενημερώθηκε: 30/11/2022 08:50
Κυρίως νεφελώδης
Κυρίως νεφελώδης
 Ανεμος από Α
Ανεμος: Α 19 km/h
Θερμοκρασία: 15°C
Σημ. Δρόσου: 12°C
Υγρασία: 82%
Βαρόμετρο: 1013 hPa
Νέφωση: Κυρίως νεφελώδης
Ορατότητα: 10 km
Λεπτομέρειες Νεφών: Διάσπαρτα Nέφη 305 m
Κυρίως νεφελώδης 610 m
2022/11/30 06:50 LGSY 300650Z 09010KT 9999 FEW010 BKN020 15/12 Q1013 RMK BKN080 BKN180 BLU
 
LGKZ - Kozani-Elev 628m
Απόσταση από meteothes.gr: ΔΝΔ 102km
Ενημερώθηκε: 30/11/2022 08:50
Ασθενής βροχή, Καταχνιά, Συννεφιά
Ασθενής βροχή, Καταχνιά, Συννεφιά
 Ανεμος από άπνοια
Ανεμος: άπνοια
Θερμοκρασία: 5°C
Σημ. Δρόσου: 4°C
Υγρασία: 93%
Βαρόμετρο: 1014 hPa
Συνθήκες: Ασθενής βροχή, Καταχνιά
Νέφωση: Συννεφιά
Ορατότητα: 4 km
Λεπτομέρειες Νεφών: Μερικώς νεφελώδης 61 m
Κυρίως νεφελώδης 610 m
Συννεφιά 2134 m
2022/11/30 06:50 LGKZ 300650Z 00000KT 4000 -RA BR SCT002 BKN020 OVC070 05/04 Q1014
LGIO - Ioannina-Elev 476m
Απόσταση από meteothes.gr: ΔΝΔ 209km
Ενημερώθηκε: 30/11/2022 09:20
Ασθενής βροχή
Ασθενής βροχή
 Ανεμος από ΝΝΔ
Ανεμος: ΝΝΔ 7 km/h
Θερμοκρασία: 10°C
Αίσθηση Ψύχρας: 9°C
Σημ. Δρόσου: 4°C
Υγρασία: 67%
Βαρόμετρο: 1010 hPa
Συνθήκες: Ασθενής βροχή
2022/11/30 07:20 LGIO 300720Z AUTO 20004KT 050V040 //// -RA ////// 10/04 Q1010 RE//
 
LGZA - Zakinthos-Elev 3m
Απόσταση από meteothes.gr: ΝΝΔ 367km
Ενημερώθηκε: 30/11/2022 08:50
Βροχή και αστραπές, Βροχή, Κυρίως νεφελώδης
Βροχή και αστραπές, Βροχή, Κυρίως νεφελώδης
 Ανεμος από ΑΝΑ
Ανεμος: ΑΝΑ 20 km/h
Θερμοκρασία: 14°C
Σημ. Δρόσου: 12°C
Υγρασία: 88%
Βαρόμετρο: 1008 hPa
Συνθήκες: Βροχή και αστραπές, Βροχή
Νέφωση: Κυρίως νεφελώδης
Ορατότητα: 5 km
Λεπτομέρειες Νεφών: Διάσπαρτα Nέφη 488 m
Διάσπαρτα Nέφη 549 m
Κυρίως νεφελώδης 610 m
Κυρίως νεφελώδης 2134 m
2022/11/30 06:50 LGZA 300650Z 12011KT 5000 +TSRA FEW016CB FEW018TCU BKN020 BKN070 14/12 Q1008
LGKR - Corfu Island-Elev 2m
Απόσταση από meteothes.gr: ΔΝΔ 282km
Ενημερώθηκε: 30/11/2022 09:20
Κυρίως νεφελώδης
Κυρίως νεφελώδης
 Ανεμος από Α
Ανεμος: Α 13 km/h
Θερμοκρασία: 15°C
Σημ. Δρόσου: 9°C
Υγρασία: 68%
Βαρόμετρο: 1007 hPa
Νέφωση: Κυρίως νεφελώδης
Ορατότητα: 10 km
Λεπτομέρειες Νεφών: Διάσπαρτα Nέφη 610 m
Μερικώς νεφελώδης 1219 m
Κυρίως νεφελώδης 2438 m
2022/11/30 07:20 LGKR 300720Z 09007KT 9999 FEW020 SCT040 BKN080 15/09 Q1007 TEMPO RA
 
LGSO - Syros Island-Elev 72m
Απόσταση από meteothes.gr: ΝΝΑ 397km
Ενημερώθηκε: 30/11/2022 08:50
Διάσπαρτα Nέφη
Διάσπαρτα Nέφη
 Ανεμος από ΑΝΑ
Ανεμος: ΑΝΑ 17 km/h
Θερμοκρασία: 16°C
Σημ. Δρόσου: 11°C
Υγρασία: 72%
Βαρόμετρο: 1012 hPa
Νέφωση: Διάσπαρτα Nέφη
Ορατότητα: 10 km
Λεπτομέρειες Νεφών: Διάσπαρτα Nέφη 488 m
2022/11/30 06:50 LGSO 300650Z 11009KT 9999 FEW016 16/11 Q1012
LGMK - Mikonos Island-Elev 123m
Απόσταση από meteothes.gr: ΝΝΑ 412km
Ενημερώθηκε: 30/11/2022 09:20
Μερικώς νεφελώδης
Μερικώς νεφελώδης
 Ανεμος από μεταβλητός
Ανεμος: μεταβλητός 0 km/h
Θερμοκρασία: 16°C
Σημ. Δρόσου: 12°C
Υγρασία: 77%
Βαρόμετρο: 1012 hPa
Νέφωση: Μερικώς νεφελώδης
Ορατότητα: 10 km
Λεπτομέρειες Νεφών: Διάσπαρτα Nέφη 366 m
Μερικώς νεφελώδης 1219 m
2022/11/30 07:20 LGMK 300720Z /////KT 9999 FEW012 SCT040 16/12 Q1012
 
LGSR - Santorini Island-Elev 40m
Απόσταση από meteothes.gr: ΝΝΑ 520km
Ενημερώθηκε: 30/11/2022 09:20
Μερικώς νεφελώδης
Μερικώς νεφελώδης
 Ανεμος από ΑΝΑ
Ανεμος: ΑΝΑ 22 km/h
Θερμοκρασία: 17°C
Σημ. Δρόσου: 12°C
Υγρασία: 73%
Βαρόμετρο: 1012 hPa
Νέφωση: Μερικώς νεφελώδης
Ορατότητα: 10 km
Λεπτομέρειες Νεφών: Μερικώς νεφελώδης 762 m
2022/11/30 07:20 LGSR 300720Z 12012KT 9999 SCT025 17/12 Q1012
LGKL - Kalamata-Elev 8m
Απόσταση από meteothes.gr: Ν 405km
Ενημερώθηκε: 30/11/2022 09:20
Διάσπαρτα Nέφη
Διάσπαρτα Nέφη
 Ανεμος από μεταβλητός
Ανεμος: μεταβλητός 6 km/h
Θερμοκρασία: 12°C
Σημ. Δρόσου: 11°C
Υγρασία: 94%
Βαρόμετρο: 1009 hPa
Νέφωση: Διάσπαρτα Nέφη
Ορατότητα: 9 km
Λεπτομέρειες Νεφών: Διάσπαρτα Nέφη 610 m
2022/11/30 07:20 LGKL 300720Z VRB03KT 9000 FEW020 12/11 Q1009
 
LGIR - Iraklion/Crete-Elev 5m
Απόσταση από meteothes.gr: ΝΝΑ 622km
Ενημερώθηκε: 30/11/2022 09:20
Κυρίως νεφελώδης
Κυρίως νεφελώδης
 Ανεμος από ΝΑ
Ανεμος: ΝΑ 9 km/h
Θερμοκρασία: 16°C
Σημ. Δρόσου: 12°C
Υγρασία: 77%
Βαρόμετρο: 1012 hPa
Νέφωση: Κυρίως νεφελώδης
Ορατότητα: 10 km
Λεπτομέρειες Νεφών: Διάσπαρτα Nέφη 610 m
Κυρίως νεφελώδης 2438 m
2022/11/30 07:20 LGIR 300720Z 13005KT 9999 FEW020 BKN080 16/12 Q1012 NOSIG
LGRP - Rhodes-Elev 5m
Απόσταση από meteothes.gr: ΝΑ 649km
Ενημερώθηκε: 30/11/2022 09:20
Διάσπαρτα Nέφη
Διάσπαρτα Nέφη
 Ανεμος από μεταβλητός
Ανεμος: μεταβλητός 4 km/h
Θερμοκρασία: 16°C
Σημ. Δρόσου: 14°C
Υγρασία: 88%
Βαρόμετρο: 1013 hPa
Νέφωση: Διάσπαρτα Nέφη
Ορατότητα: 10 km
Λεπτομέρειες Νεφών: Διάσπαρτα Nέφη 549 m
2022/11/30 07:20 LGRP 300720Z VRB02KT 9999 FEW018 16/14 Q1013 NOSIG
 
LWOH - Ohrid/FYROM-Elev 761m
Απόσταση από meteothes.gr: ΔΒΔ 188km
Ενημερώθηκε: 30/11/2022 09:00
Συννεφιά
Συννεφιά
 Ανεμος από ΒΒΔ
Ανεμος: ΒΒΔ 11 km/h
Θερμοκρασία: 5°C
Αίσθηση Ψύχρας: 2°C
Σημ. Δρόσου: 1°C
Υγρασία: 76%
Βαρόμετρο: 1014 hPa
Νέφωση: Συννεφιά
Ορατότητα: 10 km
Λεπτομέρειες Νεφών: Διάσπαρτα Nέφη 610 m
Συννεφιά 1006 m
2022/11/30 07:00 LWOH 300700Z 34006KT 9999 FEW020 OVC033 05/01 Q1014
LBSF - Sofia/Bulgaria-Elev 595m
Απόσταση από meteothes.gr: Β 227km
Ενημερώθηκε: 30/11/2022 09:00
Συννεφιά
Συννεφιά
 Ανεμος από άπνοια
Ανεμος: άπνοια
Θερμοκρασία: 3°C
Σημ. Δρόσου: 2°C
Υγρασία: 93%
Βαρόμετρο: 1019 hPa
Νέφωση: Συννεφιά
Ορατότητα: 10 km
Λεπτομέρειες Νεφών: Συννεφιά 457 m
2022/11/30 07:00 LBSF 300700Z 00000KT 9999 OVC015 03/02 Q1019 NOSIG

(*) Μερικές αναφορές παρουσιάζουν λιγότερα στοιχεία γιατί οι αρχικές είναι ελλιπείς ή έχουν λάθος μορφοποίηση!